Southey, Canada
Current Conditions -  °F | °C
As of 1:00 PM on Thursday 25 Dec 2014 (Local Time) from CYQR Reporting Station
Broken Clouds Broken Clouds  
Wind Chill: -4°   Ceiling: 1100
Heat Index: 12°   Visibility: 15mi
Dew Point:   Wind: 15mph
Humidity: 85%   Direction: 330°NNW
Pressure: 29.91"   Gusts: NA
Location:  50.93°N, 104.5°W
Report Text: CYQR 251900Z 33013KT 15SM BKN011 BKN028 M11/M13 A2991 RMK SC5SC1 SLP168
Loading
Personal Weather Stations






























Interactive Weather Map New forecast layout! Learn more

10-Day Weather Forecast

Advertisements
Track Severe Weather on mobile